sensor_id;sensor_type;location;lat;lon;timestamp;P1;durP1;ratioP1;P2;durP2;ratioP2
72275;SDS011;61204;49.980;8.358;2022-09-09T00:04:57;2.60;;;1.30;;
72275;SDS011;61204;49.980;8.358;2022-09-09T00:07:48;2.58;;;1.08;;
72275;SDS011;61204;49.980;8.358;2022-09-09T00:12:58;3.13;;;1.20;;
72275;SDS011;61204;49.980;8.358;2022-09-09T00:21:15;4.07;;;1.27;;
72275;SDS011;61204;49.980;8.358;2022-09-09T00:24:04;3.58;;;1.20;;
72275;SDS011;61204;49.980;8.358;2022-09-09T00:26:53;3.67;;;1.58;;
72275;SDS011;61204;49.980;8.358;2022-09-09T00:32:20;4.05;;;1.27;;
72275;SDS011;61204;49.980;8.358;2022-09-09T00:37:55;3.67;;;1.10;;
72275;SDS011;61204;49.980;8.358;2022-09-09T00:40:37;3.63;;;1.30;;
72275;SDS011;61204;49.980;8.358;2022-09-09T00:43:30;2.92;;;1.00;;
72275;SDS011;61204;49.980;8.358;2022-09-09T00:52:36;4.35;;;1.20;;
72275;SDS011;61204;49.980;8.358;2022-09-09T00:55:38;2.17;;;1.00;;
72275;SDS011;61204;49.980;8.358;2022-09-09T00:58:20;4.25;;;1.45;;
72275;SDS011;61204;49.980;8.358;2022-09-09T01:00:47;4.35;;;1.35;;
72275;SDS011;61204;49.980;8.358;2022-09-09T01:03:34;4.65;;;1.77;;
72275;SDS011;61204;49.980;8.358;2022-09-09T01:12:17;2.53;;;0.98;;
72275;SDS011;61204;49.980;8.358;2022-09-09T01:15:12;4.07;;;1.43;;
72275;SDS011;61204;49.980;8.358;2022-09-09T01:20:45;3.35;;;1.33;;
72275;SDS011;61204;49.980;8.358;2022-09-09T01:27:01;1.50;;;0.93;;
72275;SDS011;61204;49.980;8.358;2022-09-09T01:29:31;4.82;;;1.23;;
72275;SDS011;61204;49.980;8.358;2022-09-09T01:32:01;2.20;;;1.17;;
72275;SDS011;61204;49.980;8.358;2022-09-09T01:35:15;1.90;;;1.15;;
72275;SDS011;61204;49.980;8.358;2022-09-09T01:38:03;3.08;;;1.40;;
72275;SDS011;61204;49.980;8.358;2022-09-09T01:40:30;3.72;;;1.30;;
72275;SDS011;61204;49.980;8.358;2022-09-09T01:42:57;3.50;;;1.30;;
72275;SDS011;61204;49.980;8.358;2022-09-09T01:45:23;3.33;;;1.63;;
72275;SDS011;61204;49.980;8.358;2022-09-09T01:47:50;5.60;;;1.40;;
72275;SDS011;61204;49.980;8.358;2022-09-09T01:50:19;3.80;;;1.15;;
72275;SDS011;61204;49.980;8.358;2022-09-09T01:52:47;2.95;;;1.35;;
72275;SDS011;61204;49.980;8.358;2022-09-09T01:55:23;6.05;;;1.48;;
72275;SDS011;61204;49.980;8.358;2022-09-09T02:02:02;5.18;;;1.42;;
72275;SDS011;61204;49.980;8.358;2022-09-09T02:04:43;4.85;;;1.85;;
72275;SDS011;61204;49.980;8.358;2022-09-09T02:07:20;2.60;;;1.20;;
72275;SDS011;61204;49.980;8.358;2022-09-09T02:10:28;4.53;;;1.30;;
72275;SDS011;61204;49.980;8.358;2022-09-09T02:13:04;5.55;;;1.77;;
72275;SDS011;61204;49.980;8.358;2022-09-09T02:21:37;3.92;;;1.25;;
72275;SDS011;61204;49.980;8.358;2022-09-09T02:24:09;5.03;;;1.45;;
72275;SDS011;61204;49.980;8.358;2022-09-09T02:26:42;3.78;;;1.15;;
72275;SDS011;61204;49.980;8.358;2022-09-09T02:29:39;3.55;;;1.48;;
72275;SDS011;61204;49.980;8.358;2022-09-09T02:32:14;7.13;;;1.60;;
72275;SDS011;61204;49.980;8.358;2022-09-09T02:34:48;4.60;;;1.25;;
72275;SDS011;61204;49.980;8.358;2022-09-09T02:39:59;3.43;;;1.57;;
72275;SDS011;61204;49.980;8.358;2022-09-09T02:42:27;3.85;;;1.27;;
72275;SDS011;61204;49.980;8.358;2022-09-09T02:44:53;2.78;;;1.10;;
72275;SDS011;61204;49.980;8.358;2022-09-09T02:47:29;3.47;;;1.40;;
72275;SDS011;61204;49.980;8.358;2022-09-09T02:50:12;3.50;;;1.20;;
72275;SDS011;61204;49.980;8.358;2022-09-09T02:52:45;2.55;;;1.25;;
72275;SDS011;61204;49.980;8.358;2022-09-09T02:56:00;3.90;;;1.40;;
72275;SDS011;61204;49.980;8.358;2022-09-09T02:58:52;2.78;;;1.52;;
72275;SDS011;61204;49.980;8.358;2022-09-09T03:01:18;3.33;;;1.30;;
72275;SDS011;61204;49.980;8.358;2022-09-09T03:03:46;3.55;;;1.40;;
72275;SDS011;61204;49.980;8.358;2022-09-09T03:06:13;4.93;;;1.40;;
72275;SDS011;61204;49.980;8.358;2022-09-09T03:08:39;6.82;;;1.48;;
72275;SDS011;61204;49.980;8.358;2022-09-09T03:11:07;3.63;;;1.40;;
72275;SDS011;61204;49.980;8.358;2022-09-09T03:13:39;3.60;;;1.70;;
72275;SDS011;61204;49.980;8.358;2022-09-09T03:16:04;4.63;;;1.52;;
72275;SDS011;61204;49.980;8.358;2022-09-09T03:18:30;4.03;;;2.05;;
72275;SDS011;61204;49.980;8.358;2022-09-09T03:20:57;3.85;;;1.35;;
72275;SDS011;61204;49.980;8.358;2022-09-09T03:23:24;5.07;;;1.58;;
72275;SDS011;61204;49.980;8.358;2022-09-09T03:25:51;3.10;;;1.70;;
72275;SDS011;61204;49.980;8.358;2022-09-09T03:28:18;4.70;;;2.17;;
72275;SDS011;61204;49.980;8.358;2022-09-09T03:30:45;4.97;;;2.30;;
72275;SDS011;61204;49.980;8.358;2022-09-09T03:33:11;3.35;;;1.80;;
72275;SDS011;61204;49.980;8.358;2022-09-09T03:35:37;5.93;;;1.95;;
72275;SDS011;61204;49.980;8.358;2022-09-09T03:38:04;6.45;;;2.03;;
72275;SDS011;61204;49.980;8.358;2022-09-09T03:40:30;7.35;;;2.03;;
72275;SDS011;61204;49.980;8.358;2022-09-09T03:42:56;4.28;;;2.10;;
72275;SDS011;61204;49.980;8.358;2022-09-09T03:45:22;8.45;;;2.00;;
72275;SDS011;61204;49.980;8.358;2022-09-09T03:47:47;6.32;;;1.83;;
72275;SDS011;61204;49.980;8.358;2022-09-09T03:50:14;8.65;;;2.72;;
72275;SDS011;61204;49.980;8.358;2022-09-09T03:52:43;5.43;;;1.95;;
72275;SDS011;61204;49.980;8.358;2022-09-09T03:55:09;4.20;;;1.85;;
72275;SDS011;61204;49.980;8.358;2022-09-09T03:57:34;6.82;;;1.73;;
72275;SDS011;61204;49.980;8.358;2022-09-09T04:00:05;4.22;;;1.63;;
72275;SDS011;61204;49.980;8.358;2022-09-09T04:02:35;5.80;;;2.28;;
72275;SDS011;61204;49.980;8.358;2022-09-09T04:05:01;8.45;;;1.63;;
72275;SDS011;61204;49.980;8.358;2022-09-09T04:07:27;6.80;;;1.70;;
72275;SDS011;61204;49.980;8.358;2022-09-09T04:09:54;6.88;;;2.10;;
72275;SDS011;61204;49.980;8.358;2022-09-09T04:12:24;4.93;;;2.10;;
72275;SDS011;61204;49.980;8.358;2022-09-09T04:14:51;4.22;;;1.75;;
72275;SDS011;61204;49.980;8.358;2022-09-09T04:17:17;5.93;;;1.90;;
72275;SDS011;61204;49.980;8.358;2022-09-09T04:19:43;4.72;;;1.50;;
72275;SDS011;61204;49.980;8.358;2022-09-09T04:22:08;2.38;;;1.30;;
72275;SDS011;61204;49.980;8.358;2022-09-09T04:24:34;4.88;;;2.00;;
72275;SDS011;61204;49.980;8.358;2022-09-09T04:27:00;4.13;;;1.48;;
72275;SDS011;61204;49.980;8.358;2022-09-09T04:29:26;5.68;;;1.40;;
72275;SDS011;61204;49.980;8.358;2022-09-09T04:31:52;5.13;;;1.65;;
72275;SDS011;61204;49.980;8.358;2022-09-09T04:34:18;5.53;;;1.48;;
72275;SDS011;61204;49.980;8.358;2022-09-09T04:36:45;3.63;;;1.50;;
72275;SDS011;61204;49.980;8.358;2022-09-09T04:39:10;2.70;;;1.50;;
72275;SDS011;61204;49.980;8.358;2022-09-09T04:41:36;3.70;;;1.75;;
72275;SDS011;61204;49.980;8.358;2022-09-09T04:44:02;3.08;;;1.60;;
72275;SDS011;61204;49.980;8.358;2022-09-09T04:46:28;4.50;;;1.40;;
72275;SDS011;61204;49.980;8.358;2022-09-09T04:48:54;4.03;;;1.55;;
72275;SDS011;61204;49.980;8.358;2022-09-09T04:51:20;4.78;;;1.50;;
72275;SDS011;61204;49.980;8.358;2022-09-09T04:53:46;6.72;;;1.60;;
72275;SDS011;61204;49.980;8.358;2022-09-09T04:56:15;4.35;;;1.60;;
72275;SDS011;61204;49.980;8.358;2022-09-09T04:58:43;4.38;;;1.48;;
72275;SDS011;61204;49.980;8.358;2022-09-09T05:01:11;7.20;;;2.05;;
72275;SDS011;61204;49.980;8.358;2022-09-09T05:03:44;8.88;;;1.85;;
72275;SDS011;61204;49.980;8.358;2022-09-09T05:06:15;5.55;;;1.58;;
72275;SDS011;61204;49.980;8.358;2022-09-09T05:08:45;2.75;;;1.40;;
72275;SDS011;61204;49.980;8.358;2022-09-09T05:11:20;4.78;;;1.48;;
72275;SDS011;61204;49.980;8.358;2022-09-09T05:13:52;6.32;;;1.83;;
72275;SDS011;61204;49.980;8.358;2022-09-09T05:16:19;4.20;;;1.75;;
72275;SDS011;61204;49.980;8.358;2022-09-09T05:18:47;8.75;;;1.40;;
72275;SDS011;61204;49.980;8.358;2022-09-09T05:21:16;3.10;;;1.50;;
72275;SDS011;61204;49.980;8.358;2022-09-09T05:23:45;4.20;;;1.75;;
72275;SDS011;61204;49.980;8.358;2022-09-09T05:26:13;4.70;;;2.10;;
72275;SDS011;61204;49.980;8.358;2022-09-09T05:28:46;5.50;;;1.67;;
72275;SDS011;61204;49.980;8.358;2022-09-09T05:31:14;5.15;;;2.00;;
72275;SDS011;61204;49.980;8.358;2022-09-09T05:33:43;5.18;;;1.60;;
72275;SDS011;61204;49.980;8.358;2022-09-09T05:36:18;6.75;;;1.80;;
72275;SDS011;61204;49.980;8.358;2022-09-09T05:38:47;3.70;;;1.77;;
72275;SDS011;61204;49.980;8.358;2022-09-09T05:41:15;6.93;;;1.50;;
72275;SDS011;61204;49.980;8.358;2022-09-09T05:43:42;5.95;;;1.45;;
72275;SDS011;61204;49.980;8.358;2022-09-09T05:46:11;5.35;;;1.88;;
72275;SDS011;61204;49.980;8.358;2022-09-09T05:48:42;3.45;;;1.60;;
72275;SDS011;61204;49.980;8.358;2022-09-09T05:51:16;5.15;;;1.25;;
72275;SDS011;61204;49.980;8.358;2022-09-09T05:53:47;6.07;;;1.60;;
72275;SDS011;61204;49.980;8.358;2022-09-09T05:56:17;5.47;;;1.60;;
72275;SDS011;61204;49.980;8.358;2022-09-09T05:58:50;5.70;;;1.70;;
72275;SDS011;61204;49.980;8.358;2022-09-09T06:01:25;5.63;;;1.48;;
72275;SDS011;61204;49.980;8.358;2022-09-09T06:03:56;4.05;;;1.30;;
72275;SDS011;61204;49.980;8.358;2022-09-09T06:06:25;2.58;;;1.25;;
72275;SDS011;61204;49.980;8.358;2022-09-09T06:09:02;3.65;;;1.30;;
72275;SDS011;61204;49.980;8.358;2022-09-09T06:11:31;4.93;;;1.20;;
72275;SDS011;61204;49.980;8.358;2022-09-09T06:14:00;3.85;;;1.35;;
72275;SDS011;61204;49.980;8.358;2022-09-09T06:16:29;7.63;;;1.67;;
72275;SDS011;61204;49.980;8.358;2022-09-09T06:18:58;4.45;;;1.05;;
72275;SDS011;61204;49.980;8.358;2022-09-09T06:21:29;4.03;;;1.30;;
72275;SDS011;61204;49.980;8.358;2022-09-09T06:24:03;2.45;;;0.82;;
72275;SDS011;61204;49.980;8.358;2022-09-09T06:26:33;3.63;;;1.00;;
72275;SDS011;61204;49.980;8.358;2022-09-09T06:29:04;4.60;;;1.17;;
72275;SDS011;61204;49.980;8.358;2022-09-09T06:31:33;2.65;;;1.08;;
72275;SDS011;61204;49.980;8.358;2022-09-09T06:34:02;4.65;;;1.23;;
72275;SDS011;61204;49.980;8.358;2022-09-09T06:36:35;6.90;;;1.50;;
72275;SDS011;61204;49.980;8.358;2022-09-09T06:39:10;4.65;;;1.08;;
72275;SDS011;61204;49.980;8.358;2022-09-09T06:41:37;4.80;;;0.95;;
72275;SDS011;61204;49.980;8.358;2022-09-09T06:44:04;4.05;;;1.05;;
72275;SDS011;61204;49.980;8.358;2022-09-09T06:46:30;6.85;;;1.15;;
72275;SDS011;61204;49.980;8.358;2022-09-09T06:48:58;4.45;;;1.20;;
72275;SDS011;61204;49.980;8.358;2022-09-09T06:51:29;7.45;;;1.30;;
72275;SDS011;61204;49.980;8.358;2022-09-09T06:53:59;5.25;;;1.08;;
72275;SDS011;61204;49.980;8.358;2022-09-09T06:56:28;4.28;;;1.00;;
72275;SDS011;61204;49.980;8.358;2022-09-09T06:59:00;3.15;;;1.00;;
72275;SDS011;61204;49.980;8.358;2022-09-09T07:01:35;5.87;;;1.33;;
72275;SDS011;61204;49.980;8.358;2022-09-09T07:04:16;3.45;;;1.00;;
72275;SDS011;61204;49.980;8.358;2022-09-09T07:06:43;3.67;;;0.95;;
72275;SDS011;61204;49.980;8.358;2022-09-09T07:09:12;3.05;;;0.80;;
72275;SDS011;61204;49.980;8.358;2022-09-09T07:11:45;9.57;;;1.30;;
72275;SDS011;61204;49.980;8.358;2022-09-09T07:14:16;4.03;;;0.90;;
72275;SDS011;61204;49.980;8.358;2022-09-09T07:16:46;4.70;;;1.17;;
72275;SDS011;61204;49.980;8.358;2022-09-09T07:19:12;8.18;;;1.13;;
72275;SDS011;61204;49.980;8.358;2022-09-09T07:21:39;5.28;;;1.10;;
72275;SDS011;61204;49.980;8.358;2022-09-09T07:24:07;5.05;;;1.10;;
72275;SDS011;61204;49.980;8.358;2022-09-09T07:26:36;2.97;;;0.90;;
72275;SDS011;61204;49.980;8.358;2022-09-09T07:29:04;5.05;;;1.15;;
72275;SDS011;61204;49.980;8.358;2022-09-09T07:31:32;3.17;;;1.15;;
72275;SDS011;61204;49.980;8.358;2022-09-09T07:34:02;7.65;;;1.20;;
72275;SDS011;61204;49.980;8.358;2022-09-09T07:36:35;3.70;;;0.90;;
72275;SDS011;61204;49.980;8.358;2022-09-09T07:39:11;3.00;;;0.95;;
72275;SDS011;61204;49.980;8.358;2022-09-09T07:41:41;6.07;;;1.20;;
72275;SDS011;61204;49.980;8.358;2022-09-09T07:44:18;5.72;;;1.35;;
72275;SDS011;61204;49.980;8.358;2022-09-09T07:46:50;6.65;;;1.38;;
72275;SDS011;61204;49.980;8.358;2022-09-09T07:49:16;3.70;;;0.93;;
72275;SDS011;61204;49.980;8.358;2022-09-09T07:51:46;5.15;;;1.40;;
72275;SDS011;61204;49.980;8.358;2022-09-09T07:54:18;7.25;;;1.38;;
72275;SDS011;61204;49.980;8.358;2022-09-09T07:56:48;2.47;;;1.10;;
72275;SDS011;61204;49.980;8.358;2022-09-09T07:59:18;4.28;;;1.55;;
72275;SDS011;61204;49.980;8.358;2022-09-09T08:01:48;5.53;;;1.20;;
72275;SDS011;61204;49.980;8.358;2022-09-09T08:04:19;5.07;;;1.02;;
72275;SDS011;61204;49.980;8.358;2022-09-09T08:06:58;6.10;;;1.35;;
72275;SDS011;61204;49.980;8.358;2022-09-09T08:09:28;3.80;;;1.10;;
72275;SDS011;61204;49.980;8.358;2022-09-09T08:11:57;3.63;;;1.23;;
72275;SDS011;61204;49.980;8.358;2022-09-09T08:14:31;3.40;;;1.20;;
72275;SDS011;61204;49.980;8.358;2022-09-09T08:17:36;4.72;;;1.15;;
72275;SDS011;61204;49.980;8.358;2022-09-09T08:20:05;10.65;;;1.95;;
72275;SDS011;61204;49.980;8.358;2022-09-09T08:22:33;10.10;;;1.55;;
72275;SDS011;61204;49.980;8.358;2022-09-09T08:25:02;5.78;;;0.93;;
72275;SDS011;61204;49.980;8.358;2022-09-09T08:27:31;3.88;;;1.35;;
72275;SDS011;61204;49.980;8.358;2022-09-09T08:29:58;4.18;;;1.30;;
72275;SDS011;61204;49.980;8.358;2022-09-09T08:32:25;4.43;;;1.08;;
72275;SDS011;61204;49.980;8.358;2022-09-09T08:34:55;6.90;;;1.58;;
72275;SDS011;61204;49.980;8.358;2022-09-09T08:37:30;4.70;;;1.23;;
72275;SDS011;61204;49.980;8.358;2022-09-09T08:40:07;5.82;;;1.80;;
72275;SDS011;61204;49.980;8.358;2022-09-09T08:42:56;5.15;;;1.25;;
72275;SDS011;61204;49.980;8.358;2022-09-09T08:45:34;5.53;;;1.52;;
72275;SDS011;61204;49.980;8.358;2022-09-09T08:53:04;3.88;;;1.38;;
72275;SDS011;61204;49.980;8.358;2022-09-09T08:56:14;4.30;;;1.30;;
72275;SDS011;61204;49.980;8.358;2022-09-09T08:59:16;3.05;;;1.05;;
72275;SDS011;61204;49.980;8.358;2022-09-09T09:01:58;6.75;;;1.23;;
72275;SDS011;61204;49.980;8.358;2022-09-09T09:05:28;6.32;;;1.40;;
72275;SDS011;61204;49.980;8.358;2022-09-09T09:09:33;3.67;;;1.20;;
72275;SDS011;61204;49.980;8.358;2022-09-09T09:12:40;3.33;;;1.02;;
72275;SDS011;61204;49.980;8.358;2022-09-09T09:17:57;8.43;;;1.45;;
72275;SDS011;61204;49.980;8.358;2022-09-09T09:20:34;5.43;;;1.23;;
72275;SDS011;61204;49.980;8.358;2022-09-09T09:24:25;7.28;;;1.30;;
72275;SDS011;61204;49.980;8.358;2022-09-09T09:27:59;6.40;;;1.30;;
72275;SDS011;61204;49.980;8.358;2022-09-09T09:31:29;9.48;;;1.80;;
72275;SDS011;61204;49.980;8.358;2022-09-09T09:34:26;3.70;;;0.93;;
72275;SDS011;61204;49.980;8.358;2022-09-09T09:38:11;6.28;;;1.25;;
72275;SDS011;61204;49.980;8.358;2022-09-09T09:42:29;3.40;;;0.90;;
72275;SDS011;61204;49.980;8.358;2022-09-09T09:46:35;6.10;;;1.30;;
72275;SDS011;61204;49.980;8.358;2022-09-09T12:02:47;2.78;;;0.70;;
72275;SDS011;61204;49.980;8.358;2022-09-09T12:05:15;6.82;;;1.08;;
72275;SDS011;61204;49.980;8.358;2022-09-09T12:07:52;4.68;;;0.90;;
72275;SDS011;61204;49.980;8.358;2022-09-09T12:10:33;2.75;;;1.00;;
72275;SDS011;61204;49.980;8.358;2022-09-09T12:13:24;3.53;;;0.90;;
72275;SDS011;61204;49.980;8.358;2022-09-09T12:15:53;6.85;;;1.13;;
72275;SDS011;61204;49.980;8.358;2022-09-09T12:18:37;8.35;;;1.60;;
72275;SDS011;61204;49.980;8.358;2022-09-09T12:24:11;5.90;;;1.25;;
72275;SDS011;61204;49.980;8.358;2022-09-09T12:27:04;3.72;;;1.20;;
72275;SDS011;61204;49.980;8.358;2022-09-09T12:32:39;4.78;;;1.30;;
72275;SDS011;61204;49.980;8.358;2022-09-09T12:35:09;2.78;;;0.98;;
72275;SDS011;61204;49.980;8.358;2022-09-09T12:40:30;3.60;;;0.98;;
72275;SDS011;61204;49.980;8.358;2022-09-09T12:43:01;5.78;;;1.05;;
72275;SDS011;61204;49.980;8.358;2022-09-09T12:45:45;4.72;;;1.33;;
72275;SDS011;61204;49.980;8.358;2022-09-09T12:48:11;3.30;;;0.98;;
72275;SDS011;61204;49.980;8.358;2022-09-09T12:50:46;4.00;;;1.08;;
72275;SDS011;61204;49.980;8.358;2022-09-09T12:56:02;3.03;;;0.70;;
72275;SDS011;61204;49.980;8.358;2022-09-09T12:58:33;0.98;;;0.40;;
72275;SDS011;61204;49.980;8.358;2022-09-09T13:01:04;1.15;;;0.52;;
72275;SDS011;61204;49.980;8.358;2022-09-09T13:03:32;5.00;;;1.10;;
72275;SDS011;61204;49.980;8.358;2022-09-09T13:06:12;2.85;;;0.50;;
72275;SDS011;61204;49.980;8.358;2022-09-09T13:08:54;5.88;;;1.13;;
72275;SDS011;61204;49.980;8.358;2022-09-09T13:11:37;4.68;;;0.80;;
72275;SDS011;61204;49.980;8.358;2022-09-09T13:14:58;2.03;;;0.50;;
72275;SDS011;61204;49.980;8.358;2022-09-09T13:17:25;3.65;;;0.50;;
72275;SDS011;61204;49.980;8.358;2022-09-09T13:19:54;0.80;;;0.20;;
72275;SDS011;61204;49.980;8.358;2022-09-09T13:22:36;2.35;;;0.60;;
72275;SDS011;61204;49.980;8.358;2022-09-09T13:27:35;2.63;;;0.30;;
72275;SDS011;61204;49.980;8.358;2022-09-09T13:33:06;1.80;;;0.60;;
72275;SDS011;61204;49.980;8.358;2022-09-09T13:35:58;2.67;;;0.30;;
72275;SDS011;61204;49.980;8.358;2022-09-09T13:38:58;0.75;;;0.20;;
72275;SDS011;61204;49.980;8.358;2022-09-09T13:41:29;2.38;;;0.60;;
72275;SDS011;61204;49.980;8.358;2022-09-09T13:44:04;1.27;;;0.30;;
72275;SDS011;61204;49.980;8.358;2022-09-09T13:47:02;2.90;;;0.50;;
72275;SDS011;61204;49.980;8.358;2022-09-09T13:50:20;1.42;;;0.40;;
72275;SDS011;61204;49.980;8.358;2022-09-09T13:52:57;1.00;;;0.38;;
72275;SDS011;61204;49.980;8.358;2022-09-09T13:55:30;2.08;;;0.35;;
72275;SDS011;61204;49.980;8.358;2022-09-09T13:58:03;2.55;;;0.65;;
72275;SDS011;61204;49.980;8.358;2022-09-09T14:00:48;1.85;;;0.40;;
72275;SDS011;61204;49.980;8.358;2022-09-09T14:04:00;1.98;;;0.40;;
72275;SDS011;61204;49.980;8.358;2022-09-09T14:11:45;1.92;;;0.40;;
72275;SDS011;61204;49.980;8.358;2022-09-09T14:15:40;4.07;;;0.60;;
72275;SDS011;61204;49.980;8.358;2022-09-09T17:23:23;2.20;;;0.47;;
72275;SDS011;61204;49.980;8.358;2022-09-09T17:25:55;4.30;;;0.80;;
72275;SDS011;61204;49.980;8.358;2022-09-09T17:28:23;3.78;;;1.00;;
72275;SDS011;61204;49.980;8.358;2022-09-09T17:30:56;3.97;;;0.88;;
72275;SDS011;61204;49.980;8.358;2022-09-09T17:33:29;2.25;;;0.82;;
72275;SDS011;61204;49.980;8.358;2022-09-09T17:35:58;4.15;;;1.13;;
72275;SDS011;61204;49.980;8.358;2022-09-09T17:38:31;3.85;;;0.88;;
72275;SDS011;61204;49.980;8.358;2022-09-09T17:41:01;3.53;;;1.20;;
72275;SDS011;61204;49.980;8.358;2022-09-09T17:43:48;4.60;;;1.17;;
72275;SDS011;61204;49.980;8.358;2022-09-09T17:46:19;4.75;;;1.33;;
72275;SDS011;61204;49.980;8.358;2022-09-09T17:48:56;2.45;;;0.95;;
72275;SDS011;61204;49.980;8.358;2022-09-09T17:51:28;6.88;;;1.85;;
72275;SDS011;61204;49.980;8.358;2022-09-09T17:53:59;7.25;;;1.50;;
72275;SDS011;61204;49.980;8.358;2022-09-09T17:56:32;3.83;;;1.27;;
72275;SDS011;61204;49.980;8.358;2022-09-09T17:59:01;4.80;;;1.65;;
72275;SDS011;61204;49.980;8.358;2022-09-09T18:01:34;5.18;;;2.00;;
72275;SDS011;61204;49.980;8.358;2022-09-09T18:04:06;5.88;;;1.50;;
72275;SDS011;61204;49.980;8.358;2022-09-09T18:06:39;2.30;;;0.80;;
72275;SDS011;61204;49.980;8.358;2022-09-09T18:09:12;2.60;;;0.70;;
72275;SDS011;61204;49.980;8.358;2022-09-09T18:11:45;3.88;;;1.13;;
72275;SDS011;61204;49.980;8.358;2022-09-09T18:14:16;2.30;;;0.50;;
72275;SDS011;61204;49.980;8.358;2022-09-09T18:16:50;1.95;;;0.40;;
72275;SDS011;61204;49.980;8.358;2022-09-09T18:19:19;4.57;;;0.55;;
72275;SDS011;61204;49.980;8.358;2022-09-09T18:21:50;1.50;;;0.90;;
72275;SDS011;61204;49.980;8.358;2022-09-09T18:24:17;1.85;;;0.60;;
72275;SDS011;61204;49.980;8.358;2022-09-09T18:26:45;2.13;;;0.40;;
72275;SDS011;61204;49.980;8.358;2022-09-09T18:29:15;2.10;;;0.52;;
72275;SDS011;61204;49.980;8.358;2022-09-09T18:31:54;2.65;;;0.40;;
72275;SDS011;61204;49.980;8.358;2022-09-09T18:34:20;1.40;;;0.38;;
72275;SDS011;61204;49.980;8.358;2022-09-09T18:36:55;2.55;;;0.40;;
72275;SDS011;61204;49.980;8.358;2022-09-09T18:39:48;2.40;;;0.60;;
72275;SDS011;61204;49.980;8.358;2022-09-09T18:42:14;2.00;;;0.47;;
72275;SDS011;61204;49.980;8.358;2022-09-09T18:44:43;2.80;;;0.50;;
72275;SDS011;61204;49.980;8.358;2022-09-09T18:47:11;2.47;;;0.40;;
72275;SDS011;61204;49.980;8.358;2022-09-09T18:49:43;1.67;;;0.50;;
72275;SDS011;61204;49.980;8.358;2022-09-09T18:52:22;2.20;;;0.60;;
72275;SDS011;61204;49.980;8.358;2022-09-09T18:55:04;1.15;;;0.47;;
72275;SDS011;61204;49.980;8.358;2022-09-09T18:57:32;2.03;;;0.52;;
72275;SDS011;61204;49.980;8.358;2022-09-09T18:59:59;1.20;;;0.60;;
72275;SDS011;61204;49.980;8.358;2022-09-09T19:02:26;3.35;;;0.80;;
72275;SDS011;61204;49.980;8.358;2022-09-09T19:04:52;2.13;;;0.80;;
72275;SDS011;61204;49.980;8.358;2022-09-09T19:07:18;6.35;;;1.08;;
72275;SDS011;61204;49.980;8.358;2022-09-09T19:09:45;5.68;;;0.95;;
72275;SDS011;61204;49.980;8.358;2022-09-09T19:12:11;1.50;;;0.70;;
72275;SDS011;61204;49.980;8.358;2022-09-09T19:14:36;3.35;;;0.88;;
72275;SDS011;61204;49.980;8.358;2022-09-09T19:17:05;3.28;;;0.70;;
72275;SDS011;61204;49.980;8.358;2022-09-09T19:19:37;2.67;;;0.90;;
72275;SDS011;61204;49.980;8.358;2022-09-09T19:22:06;4.35;;;0.80;;
72275;SDS011;61204;49.980;8.358;2022-09-09T19:24:35;8.35;;;1.10;;
72275;SDS011;61204;49.980;8.358;2022-09-09T19:27:03;3.95;;;0.93;;
72275;SDS011;61204;49.980;8.358;2022-09-09T19:29:31;2.20;;;0.55;;
72275;SDS011;61204;49.980;8.358;2022-09-09T19:32:03;3.70;;;0.82;;
72275;SDS011;61204;49.980;8.358;2022-09-09T19:34:29;1.48;;;0.57;;
72275;SDS011;61204;49.980;8.358;2022-09-09T19:36:56;3.33;;;0.88;;
72275;SDS011;61204;49.980;8.358;2022-09-09T19:39:22;3.22;;;0.80;;
72275;SDS011;61204;49.980;8.358;2022-09-09T19:41:47;1.88;;;0.75;;
72275;SDS011;61204;49.980;8.358;2022-09-09T19:44:14;3.35;;;0.75;;
72275;SDS011;61204;49.980;8.358;2022-09-09T19:46:42;2.17;;;0.77;;
72275;SDS011;61204;49.980;8.358;2022-09-09T19:49:11;5.07;;;1.08;;
72275;SDS011;61204;49.980;8.358;2022-09-09T19:51:39;4.40;;;1.13;;
72275;SDS011;61204;49.980;8.358;2022-09-09T19:54:09;2.13;;;0.95;;
72275;SDS011;61204;49.980;8.358;2022-09-09T19:56:38;4.25;;;1.00;;
72275;SDS011;61204;49.980;8.358;2022-09-09T19:59:07;3.17;;;1.00;;
72275;SDS011;61204;49.980;8.358;2022-09-09T20:01:37;4.45;;;1.05;;
72275;SDS011;61204;49.980;8.358;2022-09-09T20:04:10;3.03;;;0.90;;
72275;SDS011;61204;49.980;8.358;2022-09-09T20:06:39;2.55;;;1.17;;
72275;SDS011;61204;49.980;8.358;2022-09-09T20:09:09;3.10;;;0.80;;
72275;SDS011;61204;49.980;8.358;2022-09-09T20:11:41;1.80;;;0.80;;
72275;SDS011;61204;49.980;8.358;2022-09-09T20:14:10;2.28;;;0.63;;
72275;SDS011;61204;49.980;8.358;2022-09-09T20:16:37;3.00;;;0.60;;
72275;SDS011;61204;49.980;8.358;2022-09-09T20:19:04;3.60;;;0.77;;
72275;SDS011;61204;49.980;8.358;2022-09-09T20:21:35;3.65;;;0.57;;
72275;SDS011;61204;49.980;8.358;2022-09-09T20:24:14;4.35;;;0.70;;
72275;SDS011;61204;49.980;8.358;2022-09-09T20:31:42;1.08;;;0.50;;
72275;SDS011;61204;49.980;8.358;2022-09-09T20:34:10;1.45;;;0.57;;
72275;SDS011;61204;49.980;8.358;2022-09-09T20:36:39;2.10;;;0.73;;
72275;SDS011;61204;49.980;8.358;2022-09-09T20:39:08;1.17;;;0.68;;
72275;SDS011;61204;49.980;8.358;2022-09-09T20:41:44;1.63;;;0.40;;
72275;SDS011;61204;49.980;8.358;2022-09-09T20:44:14;4.90;;;0.65;;
72275;SDS011;61204;49.980;8.358;2022-09-09T20:46:52;4.30;;;0.70;;
72275;SDS011;61204;49.980;8.358;2022-09-09T20:49:24;1.35;;;0.52;;
72275;SDS011;61204;49.980;8.358;2022-09-09T20:51:50;1.80;;;0.55;;
72275;SDS011;61204;49.980;8.358;2022-09-09T20:54:24;1.73;;;0.70;;
72275;SDS011;61204;49.980;8.358;2022-09-09T20:56:54;2.25;;;0.85;;
72275;SDS011;61204;49.980;8.358;2022-09-09T20:59:22;2.08;;;0.82;;
72275;SDS011;61204;49.980;8.358;2022-09-09T21:01:52;1.63;;;0.70;;
72275;SDS011;61204;49.980;8.358;2022-09-09T21:04:19;3.28;;;0.80;;
72275;SDS011;61204;49.980;8.358;2022-09-09T21:06:47;2.13;;;0.85;;
72275;SDS011;61204;49.980;8.358;2022-09-09T21:09:18;3.58;;;0.63;;
72275;SDS011;61204;49.980;8.358;2022-09-09T21:11:47;3.78;;;0.70;;
72275;SDS011;61204;49.980;8.358;2022-09-09T21:14:12;2.38;;;0.85;;
72275;SDS011;61204;49.980;8.358;2022-09-09T21:16:40;2.50;;;0.63;;
72275;SDS011;61204;49.980;8.358;2022-09-09T21:19:06;1.52;;;0.70;;
72275;SDS011;61204;49.980;8.358;2022-09-09T21:21:31;2.55;;;0.70;;
72275;SDS011;61204;49.980;8.358;2022-09-09T21:24:03;2.53;;;0.80;;
72275;SDS011;61204;49.980;8.358;2022-09-09T21:26:29;3.17;;;0.80;;
72275;SDS011;61204;49.980;8.358;2022-09-09T21:28:55;1.92;;;0.70;;
72275;SDS011;61204;49.980;8.358;2022-09-09T21:31:21;1.63;;;1.05;;
72275;SDS011;61204;49.980;8.358;2022-09-09T21:33:48;2.65;;;0.90;;
72275;SDS011;61204;49.980;8.358;2022-09-09T21:36:14;1.70;;;0.90;;
72275;SDS011;61204;49.980;8.358;2022-09-09T21:38:40;1.55;;;1.00;;
72275;SDS011;61204;49.980;8.358;2022-09-09T21:41:11;5.70;;;0.93;;
72275;SDS011;61204;49.980;8.358;2022-09-09T21:43:40;4.18;;;1.10;;
72275;SDS011;61204;49.980;8.358;2022-09-09T21:46:09;4.18;;;1.10;;
72275;SDS011;61204;49.980;8.358;2022-09-09T21:48:39;5.10;;;1.58;;
72275;SDS011;61204;49.980;8.358;2022-09-09T21:51:07;3.15;;;1.48;;
72275;SDS011;61204;49.980;8.358;2022-09-09T21:53:39;3.22;;;1.30;;
72275;SDS011;61204;49.980;8.358;2022-09-09T21:56:06;2.75;;;1.25;;
72275;SDS011;61204;49.980;8.358;2022-09-09T21:58:39;2.45;;;1.30;;
72275;SDS011;61204;49.980;8.358;2022-09-09T22:01:13;1.70;;;0.90;;
72275;SDS011;61204;49.980;8.358;2022-09-09T22:03:42;2.08;;;1.40;;
72275;SDS011;61204;49.980;8.358;2022-09-09T22:06:13;4.00;;;1.20;;
72275;SDS011;61204;49.980;8.358;2022-09-09T22:08:43;3.92;;;1.10;;
72275;SDS011;61204;49.980;8.358;2022-09-09T22:11:12;2.70;;;1.65;;
72275;SDS011;61204;49.980;8.358;2022-09-09T22:13:42;3.60;;;1.00;;
72275;SDS011;61204;49.980;8.358;2022-09-09T22:16:11;3.72;;;1.10;;